createdAt,value
2023-04-25T00:01:40.010Z,66.90
2023-04-25T00:04:43.528Z,66.60
2023-04-25T00:07:47.035Z,66.40
2023-04-25T00:10:50.842Z,66.40
2023-04-25T00:13:55.507Z,66.40
2023-04-25T00:16:58.950Z,66.20
2023-04-25T00:20:02.032Z,65.70
2023-04-25T00:23:05.611Z,65.80
2023-04-25T00:26:08.643Z,65.70
2023-04-25T00:29:13.395Z,65.50
2023-04-25T00:32:16.472Z,65.30
2023-04-25T00:35:19.641Z,65.20
2023-04-25T00:38:22.964Z,65.30
2023-04-25T00:41:28.195Z,65.20
2023-04-25T00:44:33.370Z,65.20
2023-04-25T00:47:38.528Z,65.10
2023-04-25T00:50:41.936Z,65.30
2023-04-25T00:53:45.489Z,65.30
2023-04-25T00:56:48.513Z,65.30
2023-04-25T00:59:54.142Z,65.30
2023-04-25T01:02:57.417Z,65.50
2023-04-25T02:02:44.733Z,65.30
2023-04-25T02:05:47.865Z,65.50
2023-04-25T02:08:51.238Z,65.60
2023-04-25T02:11:55.552Z,65.60
2023-04-25T02:14:58.652Z,65.70
2023-04-25T02:18:03.417Z,65.70
2023-04-25T02:21:06.663Z,65.70
2023-04-25T02:24:10.572Z,65.70
2023-04-25T02:27:13.723Z,65.70
2023-04-25T02:30:18.139Z,65.90
2023-04-25T02:33:23.153Z,65.90
2023-04-25T02:36:27.364Z,65.80
2023-04-25T02:39:30.420Z,65.60
2023-04-25T02:42:34.088Z,65.80
2023-04-25T02:45:38.732Z,66.00
2023-04-25T02:48:43.286Z,65.80
2023-04-25T02:51:46.392Z,65.90
2023-04-25T02:54:49.561Z,66.00
2023-04-25T02:57:52.626Z,66.10
2023-04-25T03:00:56.105Z,66.00
2023-04-25T03:04:00.724Z,65.90
2023-04-25T03:07:03.901Z,66.10
2023-04-25T03:10:08.090Z,66.10
2023-04-25T03:13:11.271Z,66.00
2023-04-25T03:16:14.502Z,65.90
2023-04-25T03:19:21.438Z,66.00
2023-04-25T03:22:24.650Z,66.20
2023-04-25T03:25:27.890Z,66.00
2023-04-25T03:28:31.027Z,66.00
2023-04-25T03:31:34.159Z,66.00
2023-04-25T03:34:38.630Z,66.10
2023-04-25T03:37:46.342Z,66.40
2023-04-25T03:40:51.590Z,66.20
2023-04-25T03:43:54.616Z,66.10
2023-04-25T03:46:57.728Z,66.20
2023-04-25T03:50:04.192Z,66.40
2023-04-25T03:53:07.202Z,66.30
2023-04-25T03:56:10.534Z,66.30
2023-04-25T03:59:13.571Z,66.40
2023-04-25T04:02:16.950Z,66.40
2023-04-25T04:05:21.818Z,66.30
2023-04-25T04:08:25.050Z,66.20
2023-04-25T04:11:29.899Z,66.20
2023-04-25T04:14:34.143Z,66.50
2023-04-25T04:17:37.215Z,66.40
2023-04-25T04:20:43.065Z,66.20
2023-04-25T04:23:47.595Z,66.40
2023-04-25T04:26:51.692Z,66.20
2023-04-25T04:29:54.688Z,66.40
2023-04-25T04:32:58.165Z,66.40
2023-04-25T04:36:05.081Z,66.40
2023-04-25T04:39:10.171Z,66.60
2023-04-25T04:42:13.652Z,66.50
2023-04-25T04:45:17.303Z,66.60
2023-04-25T04:48:22.235Z,66.40
2023-04-25T04:51:26.619Z,66.40
2023-04-25T04:54:31.517Z,66.40
2023-04-25T04:57:34.744Z,66.40
2023-04-25T05:00:38.428Z,66.10
2023-04-25T05:03:41.693Z,66.30
2023-04-25T05:06:48.973Z,66.20
2023-04-25T05:09:52.272Z,66.20
2023-04-25T05:12:55.364Z,66.10
2023-04-25T05:15:58.292Z,66.20
2023-04-25T05:19:01.334Z,66.10
2023-04-25T05:22:05.860Z,65.90
2023-04-25T05:25:09.614Z,65.80
2023-04-25T05:28:14.200Z,65.90
2023-04-25T05:31:17.589Z,65.80
2023-04-25T05:34:20.622Z,65.90
2023-04-25T05:37:24.976Z,66.10
2023-04-25T05:40:28.101Z,65.80
2023-04-25T05:43:31.288Z,66.10
2023-04-25T05:46:34.397Z,66.00
2023-04-25T05:49:37.357Z,66.40
2023-04-25T05:52:41.900Z,66.20
2023-04-25T05:55:45.034Z,66.20
2023-04-25T05:58:48.334Z,66.40
2023-04-25T06:01:51.278Z,66.30
2023-04-25T06:04:54.906Z,66.50
2023-04-25T06:07:59.468Z,66.40
2023-04-25T06:11:02.678Z,66.80
2023-04-25T06:14:05.589Z,66.80
2023-04-25T06:17:09.577Z,66.90
2023-04-25T06:20:13.660Z,67.00
2023-04-25T06:23:19.019Z,67.00
2023-04-25T06:26:22.077Z,67.00
2023-04-25T06:29:25.053Z,67.00
2023-04-25T06:32:29.722Z,67.20
2023-04-25T06:35:32.819Z,67.20
2023-04-25T06:38:37.490Z,67.20
2023-04-25T06:41:40.431Z,67.00
2023-04-25T06:44:43.688Z,66.90
2023-04-25T06:47:46.883Z,67.20
2023-04-25T06:50:50.161Z,67.00
2023-04-25T06:53:54.541Z,67.00
2023-04-25T06:56:58.053Z,66.70
2023-04-25T07:00:02.310Z,67.00
2023-04-25T07:03:05.988Z,67.40
2023-04-25T07:06:09.357Z,67.70
2023-04-25T07:09:14.139Z,67.50
2023-04-25T07:12:17.151Z,67.50
2023-04-25T07:15:20.366Z,67.30
2023-04-25T07:18:23.447Z,67.30
2023-04-25T07:21:26.535Z,67.60
2023-04-25T07:24:31.009Z,68.00
2023-04-25T07:27:34.350Z,68.40
2023-04-25T07:30:37.773Z,68.70
2023-04-25T07:33:40.743Z,68.90
2023-04-25T07:36:43.801Z,69.30
2023-04-25T07:39:48.159Z,68.70
2023-04-25T07:42:51.429Z,68.00
2023-04-25T07:45:55.611Z,67.80
2023-04-25T07:48:58.682Z,67.50
2023-04-25T07:52:01.625Z,67.10
2023-04-25T07:55:06.729Z,65.80
2023-04-25T07:58:09.868Z,65.30
2023-04-25T08:01:12.982Z,64.90
2023-04-25T08:04:16.247Z,64.70
2023-04-25T08:07:19.405Z,63.90
2023-04-25T08:10:24.191Z,63.30
2023-04-25T08:13:27.175Z,63.60
2023-04-25T08:16:30.976Z,63.20
2023-04-25T08:19:34.110Z,61.90
2023-04-25T08:22:37.085Z,61.40
2023-04-25T08:25:41.642Z,62.00
2023-04-25T08:28:44.629Z,62.80
2023-04-25T08:31:47.906Z,62.80
2023-04-25T08:34:52.293Z,62.30
2023-04-25T08:37:55.305Z,60.50
2023-04-25T08:41:01.822Z,60.60
2023-04-25T08:44:05.831Z,59.70
2023-04-25T08:47:09.695Z,58.70
2023-04-25T08:50:12.978Z,58.90
2023-04-25T08:53:20.275Z,58.10
2023-04-25T08:56:24.846Z,57.40
2023-04-25T08:59:28.787Z,56.20
2023-04-25T09:02:32.334Z,55.70
2023-04-25T09:05:36.520Z,54.90
2023-04-25T09:08:41.207Z,54.50
2023-04-25T09:11:45.829Z,54.30
2023-04-25T09:15:09.524Z,53.60
2023-04-25T09:18:12.850Z,53.70
2023-04-25T09:21:16.983Z,52.90
2023-04-25T09:24:31.737Z,52.50
2023-04-25T09:27:36.077Z,52.40
2023-04-25T09:30:39.348Z,51.90
2023-04-25T09:33:45.462Z,51.00
2023-04-25T09:36:48.401Z,51.20
2023-04-25T09:39:53.299Z,51.40
2023-04-25T09:42:58.826Z,50.50
2023-04-25T09:46:02.137Z,51.40
2023-04-25T09:49:09.560Z,50.40
2023-04-25T09:52:16.804Z,49.30
2023-04-25T09:55:20.312Z,49.60
2023-04-25T09:58:27.039Z,48.90
2023-04-25T10:01:30.338Z,48.70
2023-04-25T10:04:37.419Z,48.40
2023-04-25T10:07:42.492Z,48.70
2023-04-25T10:10:46.072Z,49.30
2023-04-25T10:13:51.338Z,49.30
2023-04-25T10:16:56.661Z,48.40
2023-04-25T10:20:00.984Z,49.50
2023-04-25T10:23:13.946Z,48.70
2023-04-25T10:26:17.770Z,48.30
2023-04-25T10:29:26.816Z,47.80
2023-04-25T10:32:31.249Z,48.30
2023-04-25T10:35:36.318Z,48.30
2023-04-25T10:38:40.160Z,48.40
2023-04-25T10:41:50.395Z,48.80
2023-04-25T10:45:07.474Z,48.50
2023-04-25T10:48:27.291Z,48.70
2023-04-25T10:51:53.974Z,47.80
2023-04-25T10:54:59.052Z,48.50
2023-04-25T10:58:03.196Z,48.00
2023-04-25T11:01:08.843Z,48.40
2023-04-25T11:04:26.568Z,48.10
2023-04-25T11:07:40.053Z,47.70
2023-04-25T11:10:43.213Z,47.80
2023-04-25T11:13:48.617Z,47.90
2023-04-25T11:16:58.925Z,47.00
2023-04-25T11:20:07.369Z,46.90
2023-04-25T11:23:10.427Z,47.50
2023-04-25T11:26:13.502Z,48.20
2023-04-25T11:29:16.578Z,48.20
2023-04-25T11:32:21.931Z,48.70
2023-04-25T11:35:26.659Z,49.50
2023-04-25T11:38:30.075Z,48.20
2023-04-25T11:41:33.135Z,48.00
2023-04-25T11:44:36.615Z,46.80
2023-04-25T11:47:41.159Z,47.30
2023-04-25T11:50:44.556Z,46.70
2023-04-25T11:53:47.847Z,46.10
2023-04-25T11:56:51.155Z,46.40
2023-04-25T11:59:54.151Z,46.20
2023-04-25T12:02:59.828Z,46.00
2023-04-25T12:06:06.554Z,45.90
2023-04-25T12:09:11.649Z,45.70
2023-04-25T12:12:14.857Z,45.90
2023-04-25T12:15:21.022Z,46.30
2023-04-25T12:18:28.394Z,46.70
2023-04-25T12:21:34.203Z,47.20
2023-04-25T12:24:40.534Z,48.40
2023-04-25T12:27:44.953Z,46.90
2023-04-25T12:31:01.831Z,46.40
2023-04-25T12:34:06.332Z,45.50
2023-04-25T12:37:09.468Z,45.20
2023-04-25T12:40:12.889Z,44.90
2023-04-25T12:43:16.006Z,44.90
2023-04-25T12:46:19.469Z,44.80
2023-04-25T12:49:24.345Z,45.30
2023-04-25T12:52:27.461Z,45.00
2023-04-25T12:55:30.712Z,45.50
2023-04-25T12:58:34.377Z,46.40
2023-04-25T13:01:37.556Z,46.20
2023-04-25T13:04:42.096Z,45.50
2023-04-25T13:07:45.124Z,45.60
2023-04-25T13:10:49.257Z,45.50
2023-04-25T13:13:52.896Z,45.70
2023-04-25T13:16:56.587Z,45.40
2023-04-25T13:20:00.978Z,44.80
2023-04-25T13:23:04.048Z,45.00
2023-04-25T13:26:06.982Z,45.10
2023-04-25T13:29:10.157Z,44.60
2023-04-25T13:32:13.588Z,44.60
2023-04-25T13:35:19.723Z,45.00
2023-04-25T13:38:23.925Z,45.00
2023-04-25T13:41:26.898Z,45.50
2023-04-25T13:44:29.925Z,46.00
2023-04-25T13:47:33.162Z,45.90
2023-04-25T13:50:37.625Z,46.40
2023-04-25T13:53:40.702Z,46.80
2023-04-25T13:56:43.904Z,46.50
2023-04-25T13:59:47.034Z,46.40
2023-04-25T14:02:50.881Z,46.60
2023-04-25T14:05:58.001Z,45.70
2023-04-25T14:09:02.080Z,47.00
2023-04-25T14:12:07.248Z,47.50
2023-04-25T14:15:11.819Z,47.50
2023-04-25T14:18:14.930Z,47.40
2023-04-25T14:21:21.337Z,47.20
2023-04-25T14:24:24.736Z,47.40
2023-04-25T14:27:29.336Z,47.60
2023-04-25T14:30:32.769Z,48.10
2023-04-25T14:33:36.323Z,48.20
2023-04-25T14:36:41.222Z,47.70
2023-04-25T14:39:45.880Z,47.60
2023-04-25T14:42:49.433Z,47.80
2023-04-25T14:45:52.344Z,47.90
2023-04-25T14:48:56.879Z,48.40
2023-04-25T14:52:02.083Z,47.40
2023-04-25T14:55:06.451Z,47.20
2023-04-25T14:58:09.830Z,47.30
2023-04-25T15:01:13.978Z,48.60
2023-04-25T15:04:18.419Z,48.70
2023-04-25T15:07:23.057Z,49.00
2023-04-25T15:10:25.994Z,49.50
2023-04-25T15:13:29.233Z,50.10
2023-04-25T15:16:35.042Z,50.40
2023-04-25T15:19:38.014Z,50.50
2023-04-25T15:22:43.650Z,50.50
2023-04-25T15:25:47.318Z,50.80
2023-04-25T15:28:50.665Z,50.10
2023-04-25T15:31:54.073Z,50.20
2023-04-25T15:34:57.708Z,49.30
2023-04-25T15:38:02.250Z,49.00
2023-04-25T15:41:06.889Z,48.40
2023-04-25T15:44:10.950Z,48.10
2023-04-25T15:47:14.236Z,48.30
2023-04-25T15:50:17.407Z,48.50
2023-04-25T15:53:21.927Z,48.60
2023-04-25T15:56:25.514Z,49.20
2023-04-25T15:59:28.541Z,49.20
2023-04-25T16:02:32.273Z,49.20
2023-04-25T16:05:35.499Z,49.40
2023-04-25T16:08:39.976Z,49.70
2023-04-25T16:11:43.120Z,50.10
2023-04-25T16:14:47.003Z,49.60
2023-04-25T16:17:50.067Z,48.40
2023-04-25T16:20:54.723Z,47.50
2023-04-25T16:23:59.519Z,48.30
2023-04-25T16:27:02.935Z,48.40
2023-04-25T16:30:11.392Z,48.30
2023-04-25T16:33:14.689Z,48.40
2023-04-25T16:36:18.000Z,48.00
2023-04-25T16:39:23.175Z,47.50
2023-04-25T16:42:26.354Z,47.70
2023-04-25T16:45:31.163Z,47.70
2023-04-25T16:48:34.716Z,48.20
2023-04-25T16:51:37.915Z,47.70
2023-04-25T16:54:42.453Z,47.70
2023-04-25T16:57:45.492Z,48.20
2023-04-25T17:00:48.930Z,48.20
2023-04-25T17:03:52.226Z,48.30
2023-04-25T17:06:55.411Z,48.30
2023-04-25T17:10:01.319Z,48.70
2023-04-25T17:13:04.461Z,48.80
2023-04-25T17:16:10.072Z,49.60
2023-04-25T17:19:13.385Z,49.30
2023-04-25T17:22:16.889Z,49.70
2023-04-25T17:25:21.329Z,49.90
2023-04-25T17:28:24.681Z,50.10
2023-04-25T17:31:27.815Z,49.90
2023-04-25T17:34:31.975Z,50.20
2023-04-25T17:37:35.299Z,50.10
2023-04-25T17:40:39.788Z,50.40
2023-04-25T17:43:42.864Z,50.50
2023-04-25T17:46:46.032Z,51.30
2023-04-25T17:49:49.495Z,51.20
2023-04-25T17:52:52.496Z,51.10
2023-04-25T17:55:57.042Z,51.40
2023-04-25T17:59:00.100Z,51.80
2023-04-25T18:02:03.960Z,52.10
2023-04-25T18:05:10.941Z,52.40
2023-04-25T18:08:14.507Z,52.60
2023-04-25T18:11:19.466Z,52.90
2023-04-25T18:14:24.134Z,52.90
2023-04-25T18:17:27.225Z,53.10
2023-04-25T18:20:30.284Z,53.00
2023-04-25T18:23:34.405Z,53.30
2023-04-25T18:26:39.193Z,53.40
2023-04-25T18:29:45.513Z,53.50
2023-04-25T18:32:48.706Z,53.70
2023-04-25T18:38:59.672Z,55.30
2023-04-25T18:42:08.401Z,55.70
2023-04-25T18:45:12.492Z,56.10
2023-04-25T18:48:15.608Z,56.40
2023-04-25T18:51:18.889Z,56.60
2023-04-25T18:54:22.029Z,56.90
2023-04-25T18:57:26.813Z,57.00
2023-04-25T19:00:30.360Z,57.20
2023-04-25T19:03:33.889Z,56.80
2023-04-25T19:06:37.364Z,56.80
2023-04-25T19:09:40.411Z,56.50
2023-04-25T19:12:44.702Z,56.00
2023-04-25T19:15:48.144Z,55.30
2023-04-25T19:18:52.815Z,55.00
2023-04-25T19:21:55.957Z,54.90
2023-04-25T19:25:09.772Z,54.80
2023-04-25T19:28:16.632Z,54.80
2023-04-25T19:31:20.064Z,54.40
2023-04-25T19:34:23.387Z,54.30
2023-04-25T19:37:26.668Z,54.10
2023-04-25T19:40:29.738Z,53.40
2023-04-25T19:43:35.449Z,53.50
2023-04-25T19:46:39.307Z,53.00
2023-04-25T19:49:42.406Z,53.30
2023-04-25T19:52:45.530Z,53.50
2023-04-25T19:55:48.893Z,53.70
2023-04-25T19:58:53.803Z,54.00
2023-04-25T20:01:57.354Z,54.30
2023-04-25T20:05:01.380Z,54.30
2023-04-25T20:08:04.711Z,54.80
2023-04-25T20:11:07.818Z,55.00
2023-04-25T20:14:12.612Z,55.20
2023-04-25T20:17:15.758Z,55.70
2023-04-25T20:20:22.271Z,56.00
2023-04-25T20:23:25.744Z,56.10
2023-04-25T20:26:33.956Z,56.20
2023-04-25T20:29:40.747Z,56.40
2023-04-25T20:32:43.948Z,56.50
2023-04-25T20:35:48.454Z,56.60
2023-04-25T20:38:52.082Z,57.00
2023-04-25T20:41:56.260Z,56.90
2023-04-25T20:45:00.879Z,56.90
2023-04-25T20:48:04.958Z,57.10
2023-04-25T20:51:08.759Z,57.30
2023-04-25T20:54:13.484Z,57.70
2023-04-25T20:57:17.234Z,57.70
2023-04-25T21:00:28.958Z,57.70
2023-04-25T21:03:32.670Z,57.90
2023-04-25T21:06:36.415Z,57.90
2023-04-25T21:09:39.530Z,57.70
2023-04-25T21:12:44.090Z,57.80
2023-04-25T21:15:49.005Z,57.50
2023-04-25T21:18:52.362Z,57.20
2023-04-25T21:21:55.950Z,57.10
2023-04-25T21:25:05.975Z,57.00
2023-04-25T21:28:10.051Z,57.30
2023-04-25T21:31:14.955Z,56.90
2023-04-25T21:34:20.359Z,57.20
2023-04-25T21:37:25.122Z,57.10
2023-04-25T21:40:28.385Z,57.40
2023-04-25T21:43:31.578Z,57.80
2023-04-25T21:46:36.713Z,57.70
2023-04-25T21:49:39.918Z,57.90
2023-04-25T21:52:43.119Z,57.90
2023-04-25T21:55:46.245Z,57.90
2023-04-25T21:58:49.343Z,58.10
2023-04-25T22:01:54.592Z,58.20
2023-04-25T22:04:57.781Z,58.40
2023-04-25T22:08:00.932Z,58.30
2023-04-25T22:11:06.986Z,58.40
2023-04-25T22:14:10.740Z,58.60
2023-04-25T22:17:15.547Z,58.70
2023-04-25T22:20:24.077Z,58.60
2023-04-25T22:23:27.393Z,59.00
2023-04-25T22:26:31.209Z,59.00
2023-04-25T22:29:34.302Z,59.00
2023-04-25T22:32:39.021Z,59.10
2023-04-25T22:35:42.165Z,59.20
2023-04-25T22:38:45.382Z,59.40
2023-04-25T22:41:48.915Z,59.70
2023-04-25T22:44:53.051Z,59.80
2023-04-25T22:47:57.799Z,59.90
2023-04-25T22:51:04.291Z,60.00
2023-04-25T22:54:07.675Z,60.10
2023-04-25T22:57:10.851Z,59.90
2023-04-25T23:00:19.165Z,60.00
2023-04-25T23:03:23.744Z,60.10
2023-04-25T23:06:27.122Z,60.20
2023-04-25T23:09:30.350Z,60.10
2023-04-25T23:12:33.520Z,60.40
2023-04-25T23:15:36.891Z,60.60
2023-04-25T23:18:41.690Z,60.70
2023-04-25T23:21:44.808Z,60.90
2023-04-25T23:24:48.416Z,61.00
2023-04-25T23:27:52.003Z,61.20
2023-04-25T23:30:55.153Z,61.70
2023-04-25T23:33:59.909Z,61.70
2023-04-25T23:37:04.476Z,62.20
2023-04-25T23:40:09.813Z,62.20
2023-04-25T23:43:13.154Z,62.40
2023-04-25T23:46:16.365Z,62.50
2023-04-25T23:49:21.012Z,62.20
2023-04-25T23:52:24.607Z,62.70
2023-04-25T23:55:27.865Z,62.50
2023-04-25T23:58:30.899Z,62.50
